createdAt,value
2022-12-04T00:01:17.857Z,-1.07
2022-12-04T00:03:44.422Z,-1.04
2022-12-04T00:06:17.579Z,-1.02
2022-12-04T00:08:45.934Z,-1.01
2022-12-04T00:11:14.695Z,-0.99
2022-12-04T00:13:41.663Z,-0.96
2022-12-04T00:16:12.692Z,-0.92
2022-12-04T00:18:39.843Z,-0.89
2022-12-04T00:21:09.349Z,-0.87
2022-12-04T00:23:37.144Z,-0.85
2022-12-04T00:26:09.265Z,-0.84
2022-12-04T00:28:36.778Z,-0.82
2022-12-04T00:31:12.628Z,-0.78
2022-12-04T00:33:39.459Z,-0.75
2022-12-04T00:36:09.952Z,-0.71
2022-12-04T00:38:37.173Z,-0.68
2022-12-04T00:41:04.545Z,-0.65
2022-12-04T00:43:32.144Z,-0.65
2022-12-04T00:45:58.695Z,-0.64
2022-12-04T00:48:26.151Z,-0.62
2022-12-04T00:50:52.641Z,-0.60
2022-12-04T00:53:19.182Z,-0.57
2022-12-04T00:55:45.749Z,-0.54
2022-12-04T00:58:13.178Z,-0.50
2022-12-04T01:00:42.465Z,-0.47
2022-12-04T01:03:09.938Z,-0.44
2022-12-04T01:05:45.230Z,-0.40
2022-12-04T01:08:12.989Z,-0.40
2022-12-04T01:10:41.915Z,-0.40
2022-12-04T01:13:09.443Z,-0.41
2022-12-04T01:15:40.675Z,-0.40
2022-12-04T01:18:07.317Z,-0.37
2022-12-04T01:20:33.976Z,-0.34
2022-12-04T01:23:00.594Z,-0.31
2022-12-04T01:25:27.023Z,-0.28
2022-12-04T01:27:53.582Z,-0.27
2022-12-04T01:30:20.075Z,-0.24
2022-12-04T01:32:46.644Z,-0.23
2022-12-04T01:35:13.214Z,-0.20
2022-12-04T01:40:59.755Z,-0.22
2022-12-04T01:43:29.461Z,-0.23
2022-12-04T01:45:57.685Z,-0.21
2022-12-04T01:48:28.689Z,-0.18
2022-12-04T01:51:18.935Z,-0.14
2022-12-04T01:53:59.973Z,-0.11
2022-12-04T01:56:34.606Z,-0.08
2022-12-04T01:59:03.174Z,-0.08
2022-12-04T02:01:36.342Z,-0.06
2022-12-04T02:04:03.286Z,-0.05
2022-12-04T02:06:29.682Z,-0.04
2022-12-04T02:08:56.139Z,-0.02
2022-12-04T02:11:50.397Z,-0.01
2022-12-04T02:14:22.903Z,0.01
2022-12-04T02:17:13.988Z,0.02
2022-12-04T02:20:08.054Z,0.03
2022-12-04T02:22:53.096Z,0.05
2022-12-04T02:25:47.946Z,0.06
2022-12-04T02:28:28.464Z,0.06
2022-12-04T02:31:01.218Z,0.06
2022-12-04T02:33:53.509Z,0.08
2022-12-04T02:36:24.074Z,0.07
2022-12-04T02:39:10.014Z,0.04
2022-12-04T02:41:45.018Z,-0.02
2022-12-04T02:44:21.832Z,-0.07
2022-12-04T02:46:55.202Z,-0.13
2022-12-04T02:49:39.583Z,-0.18
2022-12-04T02:52:12.963Z,-0.24
2022-12-04T02:54:43.519Z,-0.29
2022-12-04T02:57:16.939Z,-0.32
2022-12-04T02:59:46.554Z,-0.34
2022-12-04T03:02:23.700Z,-0.35
2022-12-04T03:04:51.872Z,-0.36
2022-12-04T03:07:25.567Z,-0.37
2022-12-04T03:09:57.234Z,-0.33
2022-12-04T03:12:36.620Z,-0.28
2022-12-04T03:15:12.574Z,-0.27
2022-12-04T03:18:00.514Z,-0.29
2022-12-04T03:20:29.966Z,-0.28
2022-12-04T03:23:03.326Z,-0.26
2022-12-04T03:25:49.835Z,-0.23
2022-12-04T03:28:31.639Z,-0.20
2022-12-04T03:31:04.068Z,-0.19
2022-12-04T03:33:42.837Z,-0.16
2022-12-04T03:36:27.462Z,-0.14
2022-12-04T03:39:00.184Z,-0.11
2022-12-04T03:41:36.666Z,-0.07
2022-12-04T03:44:19.889Z,-0.05
2022-12-04T03:47:04.261Z,-0.03
2022-12-04T03:49:56.308Z,0.01
2022-12-04T03:52:27.377Z,0.03
2022-12-04T03:55:00.852Z,0.04
2022-12-04T03:57:33.276Z,0.07
2022-12-04T04:00:13.157Z,0.10
2022-12-04T04:03:03.759Z,0.12
2022-12-04T04:05:32.565Z,0.16
2022-12-04T04:08:02.621Z,0.17
2022-12-04T04:10:29.302Z,0.17
2022-12-04T04:12:59.456Z,0.18
2022-12-04T04:15:26.039Z,0.20
2022-12-04T04:17:54.849Z,0.23
2022-12-04T04:20:26.971Z,0.26
2022-12-04T04:22:56.934Z,0.30
2022-12-04T04:25:26.728Z,0.33
2022-12-04T04:27:55.082Z,0.36
2022-12-04T04:30:22.893Z,0.38
2022-12-04T04:32:56.028Z,0.39
2022-12-04T04:35:38.586Z,0.40
2022-12-04T04:38:20.594Z,0.42
2022-12-04T04:40:58.587Z,0.44
2022-12-04T04:43:27.703Z,0.46
2022-12-04T04:46:00.619Z,0.47
2022-12-04T04:48:39.424Z,0.50
2022-12-04T04:51:06.886Z,0.52
2022-12-04T04:53:45.512Z,0.53
2022-12-04T04:56:12.869Z,0.55
2022-12-04T04:58:39.913Z,0.56
2022-12-04T05:01:13.418Z,0.56
2022-12-04T05:03:41.000Z,0.55
2022-12-04T05:06:07.780Z,0.55
2022-12-04T05:08:34.825Z,0.55
2022-12-04T05:11:02.270Z,0.56
2022-12-04T05:13:30.334Z,0.57
2022-12-04T05:15:58.022Z,0.56
2022-12-04T05:18:25.456Z,0.54
2022-12-04T05:20:51.993Z,0.52
2022-12-04T05:23:18.648Z,0.52
2022-12-04T05:25:45.393Z,0.51
2022-12-04T05:28:11.940Z,0.50
2022-12-04T05:30:38.685Z,0.48
2022-12-04T05:33:05.317Z,0.48
2022-12-04T05:35:32.004Z,0.47
2022-12-04T05:37:58.546Z,0.46
2022-12-04T05:40:25.054Z,0.46
2022-12-04T05:42:51.695Z,0.46
2022-12-04T05:45:18.338Z,0.45
2022-12-04T05:47:44.878Z,0.44
2022-12-04T05:50:13.372Z,0.42
2022-12-04T05:52:39.909Z,0.42
2022-12-04T05:55:06.574Z,0.41
2022-12-04T05:57:32.980Z,0.41
2022-12-04T05:59:59.448Z,0.41
2022-12-04T06:02:25.960Z,0.45
2022-12-04T06:04:52.510Z,0.49
2022-12-04T06:07:19.059Z,0.51
2022-12-04T06:09:45.525Z,0.52
2022-12-04T06:12:12.140Z,0.54
2022-12-04T06:14:39.937Z,0.55
2022-12-04T06:17:06.777Z,0.55
2022-12-04T06:19:33.272Z,0.55
2022-12-04T06:21:59.757Z,0.55
2022-12-04T06:24:26.170Z,0.54
2022-12-04T06:27:26.356Z,0.54
2022-12-04T06:29:43.619Z,0.48
2022-12-04T06:32:10.127Z,0.46
2022-12-04T06:34:36.605Z,0.44
2022-12-04T06:37:03.055Z,0.43
2022-12-04T06:39:29.786Z,0.45
2022-12-04T06:41:56.221Z,0.45
2022-12-04T06:44:22.976Z,0.47
2022-12-04T06:46:50.165Z,0.50
2022-12-04T06:49:17.146Z,0.50
2022-12-04T06:51:43.619Z,0.49
2022-12-04T06:54:10.449Z,0.52
2022-12-04T06:56:36.963Z,0.55
2022-12-04T06:59:04.460Z,0.57
2022-12-04T07:01:33.954Z,0.61
2022-12-04T07:04:01.665Z,0.65
2022-12-04T07:06:33.609Z,0.69
2022-12-04T07:09:09.542Z,0.71
2022-12-04T07:11:36.841Z,0.74
2022-12-04T07:14:04.492Z,0.83
2022-12-04T07:16:36.696Z,0.89
2022-12-04T07:19:06.891Z,0.97
2022-12-04T07:21:33.298Z,1.05
2022-12-04T07:24:01.299Z,1.13
2022-12-04T07:26:29.427Z,1.22
2022-12-04T07:28:57.135Z,1.30
2022-12-04T07:31:25.753Z,1.38
2022-12-04T07:33:53.824Z,1.48
2022-12-04T07:36:22.310Z,1.58
2022-12-04T07:38:49.568Z,1.64
2022-12-04T07:41:16.747Z,1.72
2022-12-04T07:43:43.344Z,1.78
2022-12-04T07:46:19.101Z,1.78
2022-12-04T07:48:46.065Z,1.79
2022-12-04T07:51:21.329Z,1.84
2022-12-04T07:53:49.076Z,1.87
2022-12-04T07:56:16.667Z,1.90
2022-12-04T07:58:44.027Z,1.93
2022-12-04T08:01:12.438Z,2.00
2022-12-04T08:03:47.953Z,2.12
2022-12-04T08:06:19.639Z,2.23
2022-12-04T08:08:47.290Z,2.33
2022-12-04T08:11:16.999Z,2.41
2022-12-04T08:13:44.351Z,2.48
2022-12-04T08:16:12.211Z,2.55
2022-12-04T08:18:39.079Z,2.56
2022-12-04T08:21:11.070Z,2.58
2022-12-04T08:23:39.498Z,2.58
2022-12-04T08:26:07.249Z,2.54
2022-12-04T08:28:34.272Z,2.53
2022-12-04T08:31:06.459Z,2.55
2022-12-04T08:33:33.791Z,2.62
2022-12-04T08:36:00.642Z,2.65
2022-12-04T08:38:27.250Z,2.67
2022-12-04T08:40:53.775Z,2.75
2022-12-04T08:43:20.283Z,2.83
2022-12-04T08:45:55.621Z,2.94
2022-12-04T08:48:22.268Z,3.08
2022-12-04T08:50:49.222Z,3.20
2022-12-04T08:53:15.969Z,3.33
2022-12-04T08:55:42.414Z,3.47
2022-12-04T08:58:09.194Z,3.63
2022-12-04T09:00:35.798Z,3.78
2022-12-04T09:03:02.341Z,3.92
2022-12-04T09:05:30.207Z,4.08
2022-12-04T09:07:57.625Z,4.19
2022-12-04T09:10:25.147Z,4.33
2022-12-04T09:12:51.898Z,4.44
2022-12-04T09:15:20.506Z,4.53
2022-12-04T09:17:47.138Z,4.64
2022-12-04T09:20:13.751Z,4.76
2022-12-04T09:23:02.785Z,5.09
2022-12-04T09:25:27.716Z,5.34
2022-12-04T09:27:54.481Z,5.35
2022-12-04T09:30:21.539Z,5.36
2022-12-04T09:32:48.276Z,5.38
2022-12-04T09:35:14.847Z,5.45
2022-12-04T09:37:44.782Z,5.49
2022-12-04T09:40:32.073Z,5.53
2022-12-04T09:43:26.778Z,5.67
2022-12-04T09:45:59.325Z,5.86
2022-12-04T09:48:34.404Z,6.11
2022-12-04T09:51:03.694Z,6.35
2022-12-04T09:53:45.999Z,6.59
2022-12-04T09:56:17.102Z,6.83
2022-12-04T09:58:51.660Z,6.97
2022-12-04T10:01:27.080Z,7.08
2022-12-04T10:03:56.840Z,7.15
2022-12-04T10:07:07.294Z,7.19
2022-12-04T10:10:00.259Z,7.18
2022-12-04T10:12:48.637Z,7.10
2022-12-04T10:15:32.376Z,6.95
2022-12-04T10:18:07.443Z,6.83
2022-12-04T10:20:47.770Z,6.69
2022-12-04T10:23:49.875Z,6.60
2022-12-04T10:26:20.272Z,6.55
2022-12-04T10:29:01.958Z,6.56
2022-12-04T10:31:33.276Z,6.50
2022-12-04T10:34:08.178Z,6.49
2022-12-04T10:36:35.704Z,6.55
2022-12-04T10:39:19.594Z,6.60
2022-12-04T10:42:00.009Z,6.70
2022-12-04T10:44:27.522Z,6.83
2022-12-04T10:49:45.037Z,7.12
2022-12-04T10:52:14.965Z,7.14
2022-12-04T10:54:58.729Z,7.11
2022-12-04T10:57:36.674Z,7.12
2022-12-04T11:00:23.538Z,7.06
2022-12-04T11:02:52.328Z,7.02
2022-12-04T11:05:31.589Z,7.00
2022-12-04T11:08:00.112Z,7.02
2022-12-04T11:10:39.604Z,7.01
2022-12-04T11:13:17.226Z,6.98
2022-12-04T11:15:49.971Z,6.96
2022-12-04T11:18:22.496Z,6.95
2022-12-04T11:21:00.396Z,6.89
2022-12-04T11:23:33.049Z,6.91
2022-12-04T11:26:06.124Z,6.96
2022-12-04T11:28:44.294Z,6.98
2022-12-04T11:31:17.958Z,7.01
2022-12-04T11:33:57.641Z,7.03
2022-12-04T11:36:34.597Z,7.06
2022-12-04T11:39:18.888Z,7.10
2022-12-04T11:41:48.547Z,7.11
2022-12-04T11:44:28.402Z,7.14
2022-12-04T11:46:59.846Z,7.16
2022-12-04T11:49:27.534Z,7.18
2022-12-04T11:52:23.101Z,7.19
2022-12-04T11:55:01.305Z,7.21
2022-12-04T11:57:54.745Z,7.23
2022-12-04T12:00:26.033Z,7.23
2022-12-04T12:02:52.537Z,7.24
2022-12-04T12:05:57.414Z,7.23
2022-12-04T12:08:30.315Z,7.27
2022-12-04T12:11:18.840Z,7.34
2022-12-04T12:13:45.482Z,7.44
2022-12-04T12:16:34.028Z,7.55
2022-12-04T12:19:00.918Z,7.69
2022-12-04T12:21:36.313Z,7.84
2022-12-04T12:24:27.022Z,8.00
2022-12-04T12:27:19.927Z,8.15
2022-12-04T12:30:03.935Z,8.29
2022-12-04T12:33:23.048Z,8.42
2022-12-04T12:36:17.193Z,8.54
2022-12-04T12:38:51.827Z,8.63
2022-12-04T12:41:43.526Z,8.73
2022-12-04T12:44:35.324Z,8.81
2022-12-04T12:47:10.266Z,8.84
2022-12-04T12:49:46.130Z,8.88
2022-12-04T12:52:19.955Z,8.85
2022-12-04T12:54:56.075Z,8.83
2022-12-04T12:57:31.150Z,8.81
2022-12-04T13:00:09.294Z,8.76
2022-12-04T13:03:03.987Z,8.72
2022-12-04T13:05:37.390Z,8.72
2022-12-04T13:08:21.139Z,8.74
2022-12-04T13:11:04.907Z,8.77
2022-12-04T13:13:39.519Z,8.78
2022-12-04T13:16:12.106Z,8.76
2022-12-04T13:18:48.322Z,8.79
2022-12-04T13:21:31.938Z,8.78
2022-12-04T13:24:26.499Z,8.75
2022-12-04T13:27:12.598Z,8.64
2022-12-04T13:29:57.702Z,8.52
2022-12-04T13:32:54.981Z,8.41
2022-12-04T13:35:46.269Z,8.25
2022-12-04T13:38:36.865Z,8.08
2022-12-04T13:41:07.191Z,7.93
2022-12-04T13:43:42.846Z,7.80
2022-12-04T13:46:35.595Z,7.65
2022-12-04T13:49:17.598Z,7.50
2022-12-04T13:51:46.304Z,7.38
2022-12-04T13:54:12.732Z,7.29
2022-12-04T13:56:41.410Z,7.19
2022-12-04T13:59:29.159Z,7.16
2022-12-04T14:02:02.231Z,7.14
2022-12-04T14:04:45.906Z,7.11
2022-12-04T14:07:30.254Z,7.08
2022-12-04T14:10:00.226Z,7.06
2022-12-04T14:12:30.034Z,7.10
2022-12-04T14:15:04.950Z,7.15
2022-12-04T14:17:37.055Z,7.20
2022-12-04T14:20:28.320Z,7.26
2022-12-04T14:22:56.602Z,7.25
2022-12-04T14:25:33.009Z,7.21
2022-12-04T14:27:59.611Z,7.16
2022-12-04T14:30:33.296Z,7.09
2022-12-04T14:33:11.102Z,6.91
2022-12-04T14:35:48.439Z,6.68
2022-12-04T14:38:20.145Z,6.49
2022-12-04T14:40:53.874Z,6.35
2022-12-04T14:43:27.197Z,6.25
2022-12-04T14:46:30.464Z,6.18
2022-12-04T14:49:37.031Z,5.99
2022-12-04T14:52:13.726Z,5.81
2022-12-04T14:55:04.699Z,5.64
2022-12-04T14:57:31.216Z,5.48
2022-12-04T14:59:58.276Z,5.35
2022-12-04T15:02:45.235Z,5.23
2022-12-04T15:05:19.524Z,5.08
2022-12-04T15:07:52.503Z,4.97
2022-12-04T15:10:27.978Z,5.05
2022-12-04T15:12:54.878Z,5.15
2022-12-04T15:15:27.339Z,5.20
2022-12-04T15:18:13.713Z,5.20
2022-12-04T15:20:49.418Z,5.05
2022-12-04T15:23:39.616Z,4.82
2022-12-04T15:26:17.346Z,4.59
2022-12-04T15:28:57.577Z,4.50
2022-12-04T15:31:30.648Z,4.64
2022-12-04T15:34:02.540Z,4.79
2022-12-04T15:36:54.560Z,4.93
2022-12-04T15:39:27.801Z,5.09
2022-12-04T15:42:27.587Z,5.24
2022-12-04T15:44:58.510Z,5.22
2022-12-04T15:47:27.122Z,4.97
2022-12-04T15:49:53.994Z,4.65
2022-12-04T15:52:25.422Z,4.36
2022-12-04T15:54:55.088Z,4.11
2022-12-04T15:57:35.598Z,3.87
2022-12-04T16:00:04.314Z,3.70
2022-12-04T16:02:42.920Z,3.57
2022-12-04T16:05:21.441Z,3.42
2022-12-04T16:07:51.039Z,3.31
2022-12-04T16:10:34.974Z,3.16
2022-12-04T16:13:04.315Z,3.02
2022-12-04T16:15:43.064Z,2.91
2022-12-04T16:18:13.326Z,2.82
2022-12-04T16:20:40.963Z,2.72
2022-12-04T16:23:07.456Z,2.61
2022-12-04T16:25:33.993Z,2.48
2022-12-04T16:28:01.768Z,2.39
2022-12-04T16:30:31.985Z,2.34
2022-12-04T16:32:58.624Z,2.27
2022-12-04T16:35:25.042Z,2.26
2022-12-04T16:37:51.613Z,2.29
2022-12-04T16:40:18.084Z,2.26
2022-12-04T16:42:44.527Z,2.21
2022-12-04T16:45:20.608Z,2.14
2022-12-04T16:47:48.303Z,2.04
2022-12-04T16:50:15.253Z,1.94
2022-12-04T16:52:41.681Z,1.86
2022-12-04T16:55:36.188Z,1.78
2022-12-04T16:58:04.269Z,1.72
2022-12-04T17:00:30.816Z,1.65
2022-12-04T17:02:58.380Z,1.61
2022-12-04T17:05:28.838Z,1.60
2022-12-04T17:07:56.023Z,1.62
2022-12-04T17:10:24.438Z,1.74
2022-12-04T17:12:55.014Z,1.75
2022-12-04T17:15:21.740Z,1.80
2022-12-04T17:17:48.379Z,1.73
2022-12-04T17:20:17.273Z,1.63
2022-12-04T17:22:43.777Z,1.53
2022-12-04T17:25:11.784Z,1.42
2022-12-04T17:27:38.677Z,1.30
2022-12-04T17:30:08.978Z,1.22
2022-12-04T17:32:35.479Z,1.14
2022-12-04T17:35:02.752Z,1.07
2022-12-04T17:37:29.408Z,0.96
2022-12-04T17:39:55.879Z,0.90
2022-12-04T17:42:22.412Z,0.88
2022-12-04T17:44:48.820Z,0.88
2022-12-04T17:47:15.536Z,0.85
2022-12-04T17:49:42.186Z,0.81
2022-12-04T17:52:08.818Z,0.75
2022-12-04T17:54:35.322Z,0.71
2022-12-04T17:57:02.112Z,0.71
2022-12-04T17:59:28.779Z,0.68
2022-12-04T18:01:55.189Z,0.64
2022-12-04T18:04:21.857Z,0.61
2022-12-04T18:06:48.526Z,0.53
2022-12-04T18:09:17.814Z,0.48
2022-12-04T18:11:47.141Z,0.44
2022-12-04T18:14:18.831Z,0.40
2022-12-04T18:16:47.941Z,0.34
2022-12-04T18:19:15.123Z,0.27
2022-12-04T18:21:42.432Z,0.20
2022-12-04T18:24:09.161Z,0.16
2022-12-04T18:26:38.301Z,0.14
2022-12-04T18:29:06.174Z,0.10
2022-12-04T18:31:33.205Z,0.07
2022-12-04T18:33:59.770Z,0.04
2022-12-04T18:36:29.790Z,0.02
2022-12-04T18:39:08.116Z,0.00
2022-12-04T18:41:34.667Z,-0.04
2022-12-04T18:44:01.395Z,-0.10
2022-12-04T18:46:27.998Z,-0.16
2022-12-04T18:48:56.560Z,-0.18
2022-12-04T18:51:28.875Z,-0.22
2022-12-04T18:54:04.565Z,-0.24
2022-12-04T18:56:33.255Z,-0.25
2022-12-04T18:59:03.021Z,-0.26
2022-12-04T19:01:29.655Z,-0.27
2022-12-04T19:03:59.120Z,-0.27
2022-12-04T19:06:52.171Z,-0.27
2022-12-04T19:09:31.524Z,-0.30
2022-12-04T19:12:07.791Z,-0.30
2022-12-04T19:14:34.336Z,-0.24
2022-12-04T19:17:00.839Z,-0.22
2022-12-04T19:19:31.457Z,-0.23
2022-12-04T19:21:58.380Z,-0.23
2022-12-04T19:24:24.773Z,-0.28
2022-12-04T19:26:53.691Z,-0.30
2022-12-04T19:29:20.242Z,-0.32
2022-12-04T19:31:46.657Z,-0.25
2022-12-04T19:34:13.100Z,-0.14
2022-12-04T19:36:39.741Z,-0.07
2022-12-04T19:39:06.299Z,-0.10
2022-12-04T19:41:33.437Z,-0.16
2022-12-04T19:44:01.312Z,-0.22
2022-12-04T19:46:30.496Z,-0.28
2022-12-04T19:49:00.278Z,-0.30
2022-12-04T19:51:27.929Z,-0.30
2022-12-04T19:53:55.136Z,-0.30
2022-12-04T19:56:24.466Z,-0.25
2022-12-04T19:58:52.747Z,-0.20
2022-12-04T20:01:22.100Z,-0.15
2022-12-04T20:03:49.087Z,-0.16
2022-12-04T20:06:18.718Z,-0.19
2022-12-04T20:08:46.074Z,-0.22
2022-12-04T20:11:16.765Z,-0.22
2022-12-04T20:13:45.276Z,-0.23
2022-12-04T20:16:13.688Z,-0.25
2022-12-04T20:18:40.916Z,-0.23
2022-12-04T20:21:08.291Z,-0.21
2022-12-04T20:23:34.663Z,-0.22
2022-12-04T20:26:08.180Z,-0.25
2022-12-04T20:28:35.098Z,-0.29
2022-12-04T20:31:11.608Z,-0.34
2022-12-04T20:33:38.194Z,-0.43
2022-12-04T20:36:04.968Z,-0.46
2022-12-04T20:38:31.394Z,-0.40
2022-12-04T20:41:02.831Z,-0.37
2022-12-04T20:43:29.246Z,-0.34
2022-12-04T20:45:55.760Z,-0.31
2022-12-04T20:48:22.334Z,-0.30
2022-12-04T20:50:48.870Z,-0.37
2022-12-04T20:53:15.515Z,-0.42
2022-12-04T20:55:42.069Z,-0.45
2022-12-04T20:58:08.809Z,-0.48
2022-12-04T21:00:35.346Z,-0.53
2022-12-04T21:03:01.929Z,-0.60
2022-12-04T21:05:28.527Z,-0.66
2022-12-04T21:07:55.023Z,-0.70
2022-12-04T21:10:21.632Z,-0.70
2022-12-04T21:12:48.051Z,-0.74
2022-12-04T21:15:14.447Z,-0.79
2022-12-04T21:17:41.284Z,-0.84
2022-12-04T21:20:10.121Z,-0.88
2022-12-04T21:22:36.778Z,-0.88
2022-12-04T21:25:03.794Z,-0.89
2022-12-04T21:27:30.665Z,-0.89
2022-12-04T21:29:57.425Z,-0.89
2022-12-04T21:32:24.130Z,-0.88
2022-12-04T21:34:50.694Z,-0.89
2022-12-04T21:37:17.245Z,-0.90
2022-12-04T21:39:43.777Z,-0.94
2022-12-04T21:42:10.625Z,-1.00
2022-12-04T21:44:37.539Z,-1.08
2022-12-04T21:47:04.090Z,-1.15
2022-12-04T21:49:30.652Z,-1.21
2022-12-04T21:51:58.532Z,-1.25
2022-12-04T21:54:27.799Z,-1.27
2022-12-04T21:56:55.182Z,-1.27
2022-12-04T21:59:21.703Z,-1.28
2022-12-04T22:01:48.385Z,-1.31
2022-12-04T22:04:15.513Z,-1.33
2022-12-04T22:06:42.554Z,-1.36
2022-12-04T22:09:11.486Z,-1.36
2022-12-04T22:11:39.349Z,-1.35
2022-12-04T22:14:05.721Z,-1.32
2022-12-04T22:16:36.909Z,-1.29
2022-12-04T22:19:06.752Z,-1.29
2022-12-04T22:21:33.288Z,-1.32
2022-12-04T22:24:01.765Z,-1.32
2022-12-04T22:26:29.853Z,-1.34
2022-12-04T22:28:57.317Z,-1.37
2022-12-04T22:31:25.994Z,-1.38
2022-12-04T22:33:54.922Z,-1.37
2022-12-04T22:36:24.207Z,-1.38
2022-12-04T22:39:09.791Z,-1.37
2022-12-04T22:41:37.585Z,-1.36
2022-12-04T22:44:04.657Z,-1.37
2022-12-04T22:46:31.756Z,-1.38
2022-12-04T22:48:59.531Z,-1.39
2022-12-04T22:51:26.325Z,-1.37
2022-12-04T22:53:55.492Z,-1.30
2022-12-04T22:56:31.784Z,-1.28
2022-12-04T22:58:59.079Z,-1.25
2022-12-04T23:01:31.650Z,-1.16
2022-12-04T23:03:58.776Z,-1.08
2022-12-04T23:06:27.844Z,-1.03
2022-12-04T23:08:57.085Z,-1.01
2022-12-04T23:11:25.221Z,-0.97
2022-12-04T23:13:55.475Z,-0.90
2022-12-04T23:16:23.435Z,-0.83
2022-12-04T23:18:50.363Z,-0.78
2022-12-04T23:21:18.067Z,-0.74
2022-12-04T23:23:45.737Z,-0.71
2022-12-04T23:26:15.864Z,-0.71
2022-12-04T23:28:42.814Z,-0.71
2022-12-04T23:31:10.689Z,-0.72
2022-12-04T23:33:38.777Z,-0.74
2022-12-04T23:36:06.605Z,-0.76
2022-12-04T23:38:35.309Z,-0.78
2022-12-04T23:41:19.375Z,-0.78
2022-12-04T23:43:46.676Z,-0.76
2022-12-04T23:46:15.816Z,-0.75
2022-12-04T23:48:44.327Z,-0.75
2022-12-04T23:51:12.559Z,-0.73
2022-12-04T23:53:39.205Z,-0.70
2022-12-04T23:56:11.008Z,-0.67
2022-12-04T23:58:38.820Z,-0.66
